Thunder radar more information blitzortung!


Radar de pluja more information rain snow radar


Visita la nostra xarxa de llocs de meteo:

Template documentation
and downloads

And another site



No particular awareness of the weather is required.    There are no Weather-warnings

Pagina Historial Weather Underground text

Diari Resum Novembre 13, 2017 Unitats:  Imperial    Mètric   Tant
« Previous Dia
SegĂźent Dia »
Diari Setmana Mensual Anual Personalitzada
  Maxima: Minima: Media:
Temperatura: 59.9 °F 42.6 °F 52.7 °F
Punt de rosada: 43.9 °F 11.7 °F 22.1 °F
Humitat: 75 % 22 % 32 %
Wind Speed: 12.7 mph 0 mph 4.3 mph
RĂ fegues de vent: 12.7 mph - -
Vent:- - SSW
Pression baro: 30 in 29.8 in -
Precipitacions: 0 in    
Historical Graphs
 
 
Dades de taula per Novembre 13, 2017
Temps Temperatura Punt de rosada Pression baro Vent Wind Speed RĂ fegues de vent Humitat Rainfall Rate (Hourly)
00:01 55.9 °F 43.9 °F 29.8 in West 6.9 mph 6.9 mph 64 % 0 in
01:10 45.3 °F 37.6 °F 29.9 in Calm   2 mph 74 % 0 in
01:20 45.3 °F 37.9 °F 29.9 in Calm   2 mph 75 % 0 in
01:30 45 °F 37.6 °F 29.9 in North 1 mph 2 mph 75 % 0 in
01:40 44.4 °F 36.7 °F 29.9 in NNE 1 mph 3 mph 74 % 0 in
01:50 44.2 °F 36.5 °F 29.9 in NE 1 mph 3 mph 74 % 0 in
02:00 43.9 °F 35.4 °F 29.9 in NW 3 mph 4 mph 72 % 0 in
02:10 45.1 °F 36.7 °F 29.9 in WNW 1 mph 2 mph 72 % 0 in
02:20 46.2 °F 37 °F 29.9 in West 1 mph 3 mph 70 % 0 in
02:30 46.2 °F 37 °F 29.9 in SSW 2 mph 3 mph 70 % 0 in
02:40 46.8 °F 37 °F 29.9 in WSW 2 mph 3 mph 69 % 0 in
02:50 47.5 °F 37.4 °F 29.9 in WSW 2 mph 4 mph 68 % 0 in
03:00 49.3 °F 38.8 °F 29.9 in WSW 2 mph 4 mph 67 % 0 in
03:10 50.5 °F 39.2 °F 30 in East 2 mph 3 mph 65 % 0 in
03:20 51.4 °F 39.4 °F 30 in East 2 mph 4 mph 63 % 0 in
03:40 52.2 °F 39.6 °F 30 in ESE 2 mph 3 mph 62 % 0 in
03:50 53.6 °F 40.5 °F 30 in East 1 mph 2 mph 61 % 0 in
04:00 53.6 °F 38.3 °F 30 in ENE 3 mph 4 mph 56 % 0 in
04:10 54.3 °F 38.5 °F 30 in NE 2 mph 2 mph 55 % 0 in
04:20 55 °F 38.1 °F 30 in North 1 mph 2 mph 53 % 0 in
10:21 55.6 °F 39.2 °F 30 in WNW 3.5 mph 3.5 mph 54 % 0 in
10:22 55.6 °F 39.2 °F 30 in West 2.3 mph 2.3 mph 54 % 0 in
10:27 56.1 °F 39.2 °F 30 in ENE 2.3 mph 2.3 mph 53 % 0 in
10:32 56.3 °F 38.8 °F 30 in West 2.4 mph 2.4 mph 52 % 0 in
10:37 56.5 °F 38.7 °F 30 in NNE 1.4 mph 1.4 mph 51 % 0 in
10:42 57 °F 39 °F 30 in ENE 1.6 mph 1.6 mph 51 % 0 in
10:47 56.8 °F 37.2 °F 30 in ENE 5.8 mph 5.8 mph 48 % 0 in
10:52 56.5 °F 37 °F 30 in ENE 5.8 mph 5.8 mph 48 % 0 in
10:57 56.1 °F 36.1 °F 30 in NNE 4.6 mph 4.6 mph 47 % 0 in
11:02 56.3 °F 36.3 °F 30 in NE 5.9 mph 5.9 mph 47 % 0 in
11:07 56.7 °F 36.7 °F 30 in SW 2.3 mph 2.3 mph 47 % 0 in
11:12 56.7 °F 35.4 °F 30 in West 4.6 mph 4.6 mph 45 % 0 in
11:17 57.2 °F 36 °F 30 in WNW 4.6 mph 4.6 mph 45 % 0 in
11:22 57.2 °F 34.3 °F 30 in NE 4.6 mph 4.6 mph 42 % 0 in
11:27 57.6 °F 34 °F 30 in NE 5.4 mph 5.4 mph 41 % 0 in
11:32 57.4 °F 34 °F 30 in NE 5.9 mph 5.9 mph 41 % 0 in
11:37 57.6 °F 33.4 °F 30 in ENE 3.5 mph 3.5 mph 40 % 0 in
11:42 57.7 °F 34.2 °F 30 in NNW 4.6 mph 4.6 mph 41 % 0 in
11:47 57.6 °F 31.5 °F 30 in North 5.8 mph 5.8 mph 37 % 0 in
11:52 57.9 °F 31.8 °F 30 in NNE 4.6 mph 4.6 mph 37 % 0 in
11:57 58.1 °F 31.3 °F 30 in WNW 3.5 mph 3.5 mph 36 % 0 in
12:02 58.8 °F 31.8 °F 30 in NNW 3.5 mph 3.5 mph 36 % 0 in
12:07 59.4 °F 32.4 °F 30 in NNE 3.8 mph 3.8 mph 36 % 0 in
12:12 59.2 °F 32.2 °F 30 in NNE 3.5 mph 3.5 mph 36 % 0 in
12:17 59 °F 30.6 °F 30 in NNW 5.8 mph 5.8 mph 34 % 0 in
12:22 58.6 °F 30.4 °F 30 in NE 5.8 mph 5.8 mph 34 % 0 in
12:27 58.6 °F 30.4 °F 30 in North 6.9 mph 6.9 mph 34 % 0 in
12:32 58.8 °F 29.7 °F 30 in NW 3.5 mph 3.5 mph 33 % 0 in
12:37 59 °F 29.8 °F 30 in NNE 6.4 mph 6.4 mph 33 % 0 in
12:42 58.8 °F 29.7 °F 30 in North 5.8 mph 5.8 mph 33 % 0 in
12:48 59 °F 29.8 °F 30 in NNE 4.7 mph 4.7 mph 33 % 0 in
12:53 58.8 °F 28.9 °F 30 in North 8.1 mph 8.1 mph 32 % 0 in
12:58 59 °F 29.1 °F 30 in NE 4.6 mph 4.6 mph 32 % 0 in
13:03 59 °F 29.1 °F 30 in ENE 5.8 mph 5.8 mph 32 % 0 in
13:08 59 °F 29.1 °F 30 in ENE 6.9 mph 6.9 mph 32 % 0 in
13:13 59 °F 28.4 °F 30 in NNE 8.1 mph 8.1 mph 31 % 0 in
13:18 59 °F 28.4 °F 30 in North 9.2 mph 9.2 mph 31 % 0 in
13:23 59 °F 28.4 °F 30 in NNE 5.8 mph 5.8 mph 31 % 0 in
13:28 59 °F 28.4 °F 30 in NE 8.5 mph 8.5 mph 31 % 0 in
13:33 59 °F 27.7 °F 30 in ENE 6.9 mph 6.9 mph 30 % 0 in
13:38 59.2 °F 27.7 °F 30 in WNW 5.9 mph 5.9 mph 30 % 0 in
13:43 59 °F 27.7 °F 30 in NNW 4.6 mph 4.6 mph 30 % 0 in
13:48 59 °F 27.7 °F 30 in NNW 5.8 mph 5.8 mph 30 % 0 in
13:53 59 °F 27.7 °F 30 in NE 2.9 mph 2.9 mph 30 % 0 in
13:58 59.2 °F 27.7 °F 30 in ENE 4.9 mph 4.9 mph 30 % 0 in
14:03 59 °F 27.7 °F 30 in North 3.8 mph 3.8 mph 30 % 0 in
14:08 59 °F 27.7 °F 30 in ENE 4.6 mph 4.6 mph 30 % 0 in
14:13 58.8 °F 25.7 °F 30 in NNW 6.4 mph 6.4 mph 28 % 0 in
14:18 59.2 °F 27.7 °F 30 in SW 2.9 mph 2.9 mph 30 % 0 in
14:23 59.4 °F 27.1 °F 30 in SW 6.9 mph 6.9 mph 29 % 0 in
14:28 59.7 °F 27.3 °F 30 in NW 3.8 mph 3.8 mph 29 % 0 in
14:33 59.5 °F 27.1 °F 30 in SSE 4.6 mph 4.6 mph 29 % 0 in
14:38 59.4 °F 26.2 °F 30 in North 2 mph 2 mph 28 % 0 in
14:43 59.7 °F 27.3 °F 30 in NNW 4 mph 4 mph 29 % 0 in
14:48 59.9 °F 27.5 °F 30 in North 8.1 mph 8.1 mph 29 % 0 in
14:53 59.7 °F 26.4 °F 30 in NNE 3.5 mph 3.5 mph 28 % 0 in
14:58 59.5 °F 26.4 °F 30 in NE 4.6 mph 4.6 mph 28 % 0 in
15:03 59.2 °F 25.2 °F 30 in NW 10.4 mph 10.4 mph 27 % 0 in
15:08 59 °F 25 °F 30 in ENE 4.6 mph 4.6 mph 27 % 0 in
15:13 59 °F 25.9 °F 30 in SW 8.1 mph 8.1 mph 28 % 0 in
15:18 59.4 °F 25.3 °F 30 in NNW 6.2 mph 6.2 mph 27 % 0 in
15:23 59.2 °F 25.2 °F 30 in ESE 2.3 mph 2.3 mph 27 % 0 in
15:28 59 °F 25 °F 30 in North 5.8 mph 5.8 mph 27 % 0 in
15:33 59 °F 25 °F 30 in NW 6.2 mph 6.2 mph 27 % 0 in
15:38 58.6 °F 24.6 °F 30 in WNW 6.9 mph 6.9 mph 27 % 0 in
15:43 58.8 °F 25 °F 30 in NE 3.6 mph 3.6 mph 27 % 0 in
15:48 58.8 °F 25 °F 30 in WNW 5.8 mph 5.8 mph 27 % 0 in
15:53 59 °F 25 °F 30 in NNW 3.5 mph 3.5 mph 27 % 0 in
15:58 59 °F 25 °F 30 in WSW 3.6 mph 3.6 mph 27 % 0 in
16:03 59 °F 24.1 °F 30 in WNW 4.6 mph 4.6 mph 26 % 0 in
16:08 58.8 °F 24.1 °F 30 in WSW 8.1 mph 8.1 mph 26 % 0 in
16:13 58.6 °F 23.7 °F 30 in NNW 4.6 mph 4.6 mph 26 % 0 in
16:18 58.5 °F 23.7 °F 30 in WSW 5.8 mph 5.8 mph 26 % 0 in
16:23 58.3 °F 22.6 °F 30 in NNW 5.8 mph 5.8 mph 25 % 0 in
16:28 58.1 °F 22.5 °F 30 in WNW 3.5 mph 3.5 mph 25 % 0 in
16:33 57.9 °F 22.3 °F 30 in South 4.6 mph 4.6 mph 25 % 0 in
16:38 58.1 °F 23.4 °F 30 in West 4.6 mph 4.6 mph 26 % 0 in
16:43 57.9 °F 22.3 °F 30 in WSW 2.6 mph 2.6 mph 25 % 0 in
16:48 57.7 °F 22.1 °F 30 in West 4.6 mph 4.6 mph 25 % 0 in
16:53 57.4 °F 21.7 °F 30 in SSW 5.8 mph 5.8 mph 25 % 0 in
16:58 57.2 °F 21.6 °F 30 in WSW 5.8 mph 5.8 mph 25 % 0 in
17:03 57 °F 21.6 °F 30 in South 7.1 mph 7.1 mph 25 % 0 in
17:08 56.5 °F 20.1 °F 30 in WSW 12.7 mph 12.7 mph 24 % 0 in
17:13 55.9 °F 19.6 °F 30 in WSW 5.8 mph 5.8 mph 24 % 0 in
17:18 55.6 °F 18.3 °F 30 in WSW 6.9 mph 6.9 mph 23 % 0 in
17:23 55.2 °F 18 °F 30 in WNW 5.8 mph 5.8 mph 23 % 0 in
17:28 54.9 °F 17.8 °F 30 in NW 7.6 mph 7.6 mph 23 % 0 in
17:33 54.5 °F 17.4 °F 30 in WNW 5.4 mph 5.4 mph 23 % 0 in
17:38 54.3 °F 17.2 °F 30 in WNW 8.1 mph 8.1 mph 23 % 0 in
17:43 54 °F 16.9 °F 30 in WNW 5.9 mph 5.9 mph 23 % 0 in
17:48 53.8 °F 16.9 °F 30 in WSW 3.5 mph 3.5 mph 23 % 0 in
17:53 53.6 °F 16.5 °F 30 in West 6.9 mph 6.9 mph 23 % 0 in
17:58 53.4 °F 15.4 °F 30 in North 5.8 mph 5.8 mph 22 % 0 in
18:03 53.2 °F 16.3 °F 30 in WSW 4.9 mph 4.9 mph 23 % 0 in
18:08 52.9 °F 16 °F 30 in WSW 4.6 mph 4.6 mph 23 % 0 in
18:13 52.7 °F 16 °F 30 in WNW 3.8 mph 3.8 mph 23 % 0 in
18:18 52.5 °F 15.6 °F 30 in SW 8.1 mph 8.1 mph 23 % 0 in
18:20 46.6 °F 12.6 °F 30 in West 3 mph 3 mph 25 % 0 in
18:23 52.3 °F 15.6 °F 30 in West 5.8 mph 5.8 mph 23 % 0 in
18:28 52.3 °F 15.6 °F 30 in West 4.7 mph 4.7 mph 23 % 0 in
18:30 46.2 °F 13.3 °F 30 in West 6 mph 6 mph 26 % 0 in
18:33 52.2 °F 15.4 °F 30 in West 6.9 mph 6.9 mph 23 % 0 in
18:38 52 °F 15.3 °F 30 in WSW 5.8 mph 5.8 mph 23 % 0 in
18:40 45.7 °F 12.7 °F 30 in West 3 mph 4 mph 26 % 0 in
18:43 51.8 °F 15.1 °F 30 in WNW 3.5 mph 3.5 mph 23 % 0 in
18:48 51.6 °F 15.1 °F 30 in WNW 3.5 mph 3.5 mph 23 % 0 in
18:50 45.7 °F 12.7 °F 30 in WSW 3 mph 8 mph 26 % 0 in
18:53 51.4 °F 14.7 °F 30 in WNW 5.8 mph 5.8 mph 23 % 0 in
18:58 51.3 °F 14.7 °F 30 in West 5.8 mph 5.8 mph 23 % 0 in
19:03 51.1 °F 14.5 °F 30 in SW 3.5 mph 3.5 mph 23 % 0 in
19:08 50.9 °F 14.4 °F 30 in West 3.5 mph 3.5 mph 23 % 0 in
19:10 45 °F 12.9 °F 30 in WSW 3 mph 4 mph 27 % 0 in
19:13 50.7 °F 14.2 °F 30 in West 4.6 mph 4.6 mph 23 % 0 in
19:18 50.9 °F 14.4 °F 30 in WNW 3.1 mph 3.1 mph 23 % 0 in
19:20 44.2 °F 12.4 °F 30 in WSW 2 mph 4 mph 27 % 0 in
19:23 51.1 °F 14.5 °F 30 in WSW 3.5 mph 3.5 mph 23 % 0 in
19:28 50.5 °F 14.2 °F 30 in WSW 2.3 mph 2.3 mph 23 % 0 in
19:30 44.1 °F 12.9 °F 30 in WSW 2 mph 4 mph 28 % 0 in
19:33 50.4 °F 13.8 °F 30 in West 3.8 mph 3.8 mph 23 % 0 in
19:38 50.4 °F 13.8 °F 30 in WSW 5.8 mph 5.8 mph 23 % 0 in
19:40 44.1 °F 12.9 °F 30 in WSW 1 mph 3 mph 28 % 0 in
19:43 50.2 °F 13.6 °F 30 in WSW 4.6 mph 4.6 mph 23 % 0 in
19:48 49.8 °F 13.5 °F 30 in West 2.3 mph 2.3 mph 23 % 0 in
19:50 44.4 °F 12.6 °F 30 in WSW 2 mph 2 mph 27 % 0 in
19:53 49.8 °F 13.5 °F 30 in SW 2.3 mph 2.3 mph 23 % 0 in
19:58 49.6 °F 13.3 °F 30 in West 3.5 mph 3.5 mph 23 % 0 in
19:59 49.6 °F 13.3 °F 30 in West 3.5 mph 3.5 mph 23 % 0 in
20:00 43.7 °F 12.7 °F 30 in Calm   3 mph 28 % 0 in
20:04 49.8 °F 13.5 °F 30 in WSW 3.5 mph 3.5 mph 23 % 0 in
20:09 50 °F 13.6 °F 30 in West 4.3 mph 4.3 mph 23 % 0 in
20:10 43.3 °F 12.4 °F 30 in SW 3 mph 3 mph 28 % 0 in
20:14 50 °F 13.6 °F 30 in WSW 2.3 mph 2.3 mph 23 % 0 in
20:19 49.8 °F 13.5 °F 30 in WNW 2.2 mph 2.2 mph 23 % 0 in
20:20 42.8 °F 11.8 °F 30 in SW 3 mph 3 mph 28 % 0 in
20:24 49.8 °F 13.5 °F 30 in ENE 2.3 mph 2.3 mph 23 % 0 in
20:29 49.8 °F 13.5 °F 30 in NNE 5.8 mph 5.8 mph 23 % 0 in
20:30 42.8 °F 12.7 °F 30 in WSW 2 mph 3 mph 29 % 0 in
20:34 49.6 °F 13.3 °F 30 in NNW 4.6 mph 4.6 mph 23 % 0 in
20:39 49.8 °F 13.5 °F 30 in SW 2.3 mph 2.3 mph 23 % 0 in
20:40 43.7 °F 13.5 °F 30 in West 1 mph 3 mph 29 % 0 in
20:44 49.8 °F 13.5 °F 30 in SW 2.3 mph 2.3 mph 23 % 0 in
20:49 49.8 °F 14.4 °F 30 in WSW 3.5 mph 3.5 mph 24 % 0 in
20:50 44.2 °F 13.8 °F 30 in WSW 2 mph 3 mph 29 % 0 in
20:54 50 °F 14.5 °F 30 in SW 4.6 mph 4.6 mph 24 % 0 in
20:59 50.2 °F 13.6 °F 30 in WSW 4.6 mph 4.6 mph 23 % 0 in
21:00 44.1 °F 13.8 °F 30 in SW 1 mph 3 mph 29 % 0 in
21:04 50.4 °F 14.9 °F 30 in West 6.4 mph 6.4 mph 24 % 0 in
21:09 50.4 °F 13.8 °F 30 in West 5.9 mph 5.9 mph 23 % 0 in
21:10 42.6 °F 12.6 °F 30 in WSW 2 mph 3 mph 29 % 0 in
21:14 50.2 °F 13.6 °F 30 in WSW 5.8 mph 5.8 mph 23 % 0 in
21:19 50.2 °F 13.6 °F 30 in SW 6.9 mph 6.9 mph 23 % 0 in
21:20 42.8 °F 13.5 °F 30 in WSW 2 mph 3 mph 30 % 0 in
21:24 50 °F 13.6 °F 30 in WSW 6.9 mph 6.9 mph 23 % 0 in
21:29 50 °F 13.6 °F 30 in SW 5.8 mph 5.8 mph 23 % 0 in
21:30 43.2 °F 13.8 °F 30 in WSW 3 mph 6 mph 30 % 0 in
21:34 49.8 °F 13.5 °F 30 in WSW 5.8 mph 5.8 mph 23 % 0 in
21:39 49.6 °F 13.3 °F 30 in West 5.4 mph 5.4 mph 23 % 0 in
21:40 43.3 °F 13.8 °F 30 in WSW 3 mph 6 mph 30 % 0 in
21:44 50 °F 13.6 °F 30 in West 8.1 mph 8.1 mph 23 % 0 in
21:49 49.6 °F 13.3 °F 30 in WSW 3.5 mph 3.5 mph 23 % 0 in
21:50 43.3 °F 13.8 °F 30 in WSW 3 mph 5 mph 30 % 0 in
21:54 49.3 °F 12.9 °F 30 in West 3.8 mph 3.8 mph 23 % 0 in
21:59 49.1 °F 12.7 °F 30 in WSW 3.5 mph 3.5 mph 23 % 0 in
22:00 43.3 °F 13.8 °F 30 in West 2 mph 4 mph 30 % 0 in
22:04 48.9 °F 12.7 °F 30 in SSW 4.6 mph 4.6 mph 23 % 0 in
22:09 48.7 °F 12.6 °F 30 in WSW 4.6 mph 4.6 mph 23 % 0 in
22:10 43.2 °F 13.8 °F 30 in West 3 mph 6 mph 30 % 0 in
22:14 48.9 °F 12.7 °F 30 in SW 4.9 mph 4.9 mph 23 % 0 in
22:19 48.7 °F 12.6 °F 30 in WSW 4.6 mph 4.6 mph 23 % 0 in
22:20 48.7 °F 12.6 °F 30 in WSW 4.6 mph 4.6 mph 23 % 0 in
22:25 48.4 °F 12.2 °F 30 in WSW 4.6 mph 4.6 mph 23 % 0 in
22:30 48.4 °F 12.2 °F 30 in West 3.5 mph 3.5 mph 23 % 0 in
22:35 48.2 °F 12 °F 30 in WSW 3.5 mph 3.5 mph 23 % 0 in
22:40 48.2 °F 12 °F 30 in WNW 6.2 mph 6.2 mph 23 % 0 in
22:45 48.6 °F 12.4 °F 30 in WSW 6.9 mph 6.9 mph 23 % 0 in
22:50 49.1 °F 12.7 °F 30 in WSW 6.9 mph 6.9 mph 23 % 0 in
22:55 48.6 °F 12.4 °F 30 in SSW 4.6 mph 4.6 mph 23 % 0 in
23:00 48 °F 11.8 °F 30 in WSW 3.5 mph 3.6 mph 23 % 0 in
23:05 47.7 °F 11.7 °F 30 in SW 3.5 mph 3.5 mph 23 % 0 in
23:10 47.7 °F 11.7 °F 30 in WSW 3.5 mph 3.5 mph 23 % 0 in
23:15 47.7 °F 12.6 °F 30 in WSW 4.6 mph 4.6 mph 24 % 0 in
23:20 47.5 °F 12.4 °F 30 in WSW 3 mph 6 mph 24 % 0 in
23:25 47.7 °F 12.6 °F 30 in WSW 4.6 mph 4.9 mph 24 % 0 in
23:30 47.8 °F 12.7 °F 30 in WSW 3.6 mph 3.6 mph 24 % 0 in
23:35 47.5 °F 12.4 °F 30 in WSW 3 mph 6 mph 24 % 0 in
23:40 47.1 °F 12 °F 30 in WSW 2 mph 3 mph 24 % 0 in
23:45 46.8 °F 12.7 °F 30 in SW 2 mph 6 mph 25 % 0 in
23:50 46.6 °F 12.6 °F 30 in West 5.8 mph 5.8 mph 25 % 0 in
23:55 46.6 °F 12.6 °F 30 in SW 4.6 mph 4.6 mph 25 % 0 in
Meteo Sesrovires
Elogis d' Weather Underground - 3.75 mb

Guio original per  Jim McMurry - jmcmurry@mwt.net Adaptat per a la plantilla per  Wim van der Kuil - Leuven-Template.eu

Trobareu la nostra informacio del temps tambe a:

Weather Underground

AWEKAS